createdAt,value
2019-05-01T00:01:49.281Z,55.30
2019-05-01T00:04:34.418Z,55.20
2019-05-01T00:07:04.116Z,55.70
2019-05-01T00:09:33.217Z,56.10
2019-05-01T00:12:02.076Z,55.30
2019-05-01T00:14:30.964Z,55.10
2019-05-01T00:17:00.178Z,55.60
2019-05-01T00:19:29.044Z,55.40
2019-05-01T00:21:57.886Z,55.30
2019-05-01T00:24:26.789Z,56.80
2019-05-01T00:26:55.698Z,54.30
2019-05-01T00:29:24.586Z,55.80
2019-05-01T00:31:54.735Z,55.60
2019-05-01T00:34:23.655Z,55.20
2019-05-01T00:36:52.619Z,53.80
2019-05-01T00:39:21.519Z,54.10
2019-05-01T00:41:50.346Z,54.30
2019-05-01T00:44:19.285Z,54.90
2019-05-01T00:46:48.177Z,55.30
2019-05-01T00:49:17.098Z,55.00
2019-05-01T00:51:46.017Z,55.50
2019-05-01T00:54:14.907Z,55.50
2019-05-01T00:56:50.827Z,56.20
2019-05-01T00:59:21.329Z,56.70
2019-05-01T01:01:51.805Z,56.10
2019-05-01T01:04:21.032Z,56.40
2019-05-01T01:06:49.976Z,56.60
2019-05-01T01:09:19.274Z,56.60
2019-05-01T01:11:48.414Z,56.80
2019-05-01T01:14:17.308Z,56.30
2019-05-01T01:16:46.222Z,57.70
2019-05-01T01:19:15.190Z,57.30
2019-05-01T01:21:44.091Z,56.20
2019-05-01T01:24:12.978Z,57.40
2019-05-01T01:26:41.898Z,59.00
2019-05-01T01:29:10.886Z,58.00
2019-05-01T01:31:39.800Z,56.90
2019-05-01T01:34:08.614Z,55.10
2019-05-01T01:36:37.485Z,55.10
2019-05-01T01:39:07.204Z,56.20
2019-05-01T01:41:36.534Z,57.40
2019-05-01T01:44:23.346Z,57.70
2019-05-01T01:46:53.855Z,56.30
2019-05-01T01:49:22.730Z,54.70
2019-05-01T01:51:52.055Z,55.40
2019-05-01T01:54:21.121Z,54.20
2019-05-01T01:56:50.661Z,53.80
2019-05-01T01:59:20.324Z,55.90
2019-05-01T02:01:53.528Z,55.70
2019-05-01T02:04:24.012Z,56.90
2019-05-01T02:06:52.832Z,57.00
2019-05-01T02:09:21.754Z,55.50
2019-05-01T02:11:50.684Z,54.70
2019-05-01T02:14:19.634Z,57.10
2019-05-01T02:16:48.505Z,56.40
2019-05-01T02:19:17.451Z,55.50
2019-05-01T02:21:46.354Z,55.70
2019-05-01T02:24:15.301Z,54.90
2019-05-01T02:26:51.739Z,55.30
2019-05-01T02:29:25.165Z,56.10
2019-05-01T02:31:55.689Z,54.60
2019-05-01T02:34:26.015Z,54.60
2019-05-01T02:36:57.972Z,55.40
2019-05-01T02:39:27.580Z,56.40
2019-05-01T02:41:59.530Z,56.50
2019-05-01T02:44:31.357Z,55.70
2019-05-01T02:47:03.247Z,55.10
2019-05-01T02:49:35.003Z,55.80
2019-05-01T02:52:05.573Z,55.70
2019-05-01T02:54:36.084Z,56.80
2019-05-01T02:57:08.469Z,56.00
2019-05-01T02:59:39.426Z,56.70
2019-05-01T03:02:09.343Z,56.70
2019-05-01T03:04:38.524Z,57.50
2019-05-01T03:07:08.887Z,56.80
2019-05-01T03:09:38.830Z,56.40
2019-05-01T03:12:08.561Z,56.00
2019-05-01T03:14:40.413Z,57.00
2019-05-01T03:17:11.984Z,57.10
2019-05-01T03:19:51.492Z,57.20
2019-05-01T03:22:24.563Z,57.00
2019-05-01T03:24:53.513Z,56.30
2019-05-01T03:27:22.416Z,56.80
2019-05-01T03:29:51.414Z,57.30
2019-05-01T03:32:20.596Z,57.70
2019-05-01T03:34:52.703Z,58.50
2019-05-01T03:37:20.232Z,57.60
2019-05-01T03:39:50.174Z,58.30
2019-05-01T03:42:19.105Z,57.80
2019-05-01T03:44:47.931Z,58.20
2019-05-01T03:47:16.872Z,56.80
2019-05-01T03:49:45.880Z,57.60
2019-05-01T03:52:16.677Z,56.30
2019-05-01T03:54:45.675Z,56.30
2019-05-01T03:57:14.749Z,56.30
2019-05-01T03:59:43.669Z,56.10
2019-05-01T04:02:33.006Z,56.20
2019-05-01T04:04:50.696Z,56.70
2019-05-01T04:07:19.597Z,56.70
2019-05-01T04:09:48.545Z,56.00
2019-05-01T04:12:17.585Z,56.70
2019-05-01T04:14:46.531Z,55.80
2019-05-01T04:17:17.526Z,55.00
2019-05-01T04:19:46.441Z,56.20
2019-05-01T04:22:15.397Z,55.30
2019-05-01T04:24:44.413Z,56.00
2019-05-01T04:27:15.324Z,57.20
2019-05-01T04:29:45.881Z,57.80
2019-05-01T04:32:19.470Z,57.10
2019-05-01T04:34:52.588Z,57.10
2019-05-01T04:37:23.079Z,56.80
2019-05-01T04:39:52.172Z,57.70
2019-05-01T04:42:21.353Z,58.40
2019-05-01T04:44:50.358Z,57.90
2019-05-01T04:47:19.745Z,58.10
2019-05-01T04:49:48.740Z,57.60
2019-05-01T04:52:17.560Z,57.10
2019-05-01T04:54:46.484Z,56.30
2019-05-01T04:57:15.722Z,56.10
2019-05-01T04:59:44.853Z,55.80
2019-05-01T05:02:15.258Z,55.10
2019-05-01T05:04:44.408Z,55.10
2019-05-01T05:07:13.233Z,56.20
2019-05-01T05:09:43.145Z,57.10
2019-05-01T05:12:17.563Z,57.90
2019-05-01T05:14:48.324Z,58.20
2019-05-01T05:17:27.089Z,58.30
2019-05-01T05:19:56.436Z,56.60
2019-05-01T05:22:28.075Z,56.60
2019-05-01T05:24:56.965Z,55.90
2019-05-01T05:27:30.269Z,56.20
2019-05-01T05:29:59.357Z,56.70
2019-05-01T05:32:32.886Z,56.30
2019-05-01T05:35:04.124Z,56.30
2019-05-01T05:37:36.786Z,56.40
2019-05-01T05:40:06.645Z,57.60
2019-05-01T05:42:36.861Z,57.00
2019-05-01T05:45:08.531Z,56.30
2019-05-01T05:47:37.578Z,56.30
2019-05-01T05:50:07.897Z,56.40
2019-05-01T05:52:39.576Z,57.30
2019-05-01T05:55:14.735Z,56.10
2019-05-01T05:57:58.902Z,56.90
2019-05-01T06:00:33.896Z,56.30
2019-05-01T06:03:09.647Z,56.20
2019-05-01T06:05:49.243Z,55.90
2019-05-01T06:08:21.704Z,55.50
2019-05-01T06:10:58.374Z,55.50
2019-05-01T06:13:26.426Z,55.70
2019-05-01T06:16:00.032Z,55.90
2019-05-01T06:18:34.757Z,56.20
2019-05-01T06:21:18.867Z,55.70
2019-05-01T06:23:52.812Z,55.80
2019-05-01T06:26:31.934Z,56.50
2019-05-01T06:29:02.556Z,56.20
2019-05-01T06:31:33.325Z,55.90
2019-05-01T06:34:02.454Z,57.50
2019-05-01T06:36:31.975Z,56.10
2019-05-01T06:39:06.869Z,56.50
2019-05-01T06:41:42.067Z,56.30
2019-05-01T06:44:11.261Z,56.90
2019-05-01T06:46:41.830Z,56.70
2019-05-01T06:49:29.331Z,55.50
2019-05-01T06:52:01.202Z,55.00
2019-05-01T06:54:36.374Z,55.00
2019-05-01T07:00:29.785Z,55.30
2019-05-01T07:03:06.043Z,56.00
2019-05-01T07:05:49.187Z,55.90
2019-05-01T07:08:24.485Z,56.40
2019-05-01T07:10:47.716Z,55.30
2019-05-01T07:13:16.628Z,55.80
2019-05-01T07:15:45.601Z,55.50
2019-05-01T07:18:18.703Z,55.90
2019-05-01T07:20:51.570Z,52.90
2019-05-01T07:23:19.378Z,52.40
2019-05-01T07:25:48.511Z,52.00
2019-05-01T07:28:20.575Z,51.80
2019-05-01T07:30:54.958Z,51.00
2019-05-01T07:33:22.236Z,50.90
2019-05-01T07:35:54.064Z,51.90
2019-05-01T07:38:23.467Z,53.50
2019-05-01T07:40:52.461Z,51.70
2019-05-01T07:43:39.214Z,52.00
2019-05-01T07:46:19.588Z,53.40
2019-05-01T07:48:48.884Z,50.90
2019-05-01T07:51:21.554Z,52.00
2019-05-01T07:53:52.395Z,49.20
2019-05-01T07:56:22.930Z,50.80
2019-05-01T07:58:54.990Z,49.90
2019-05-01T08:01:42.737Z,50.20
2019-05-01T08:04:13.896Z,50.50
2019-05-01T08:06:44.049Z,50.90
2019-05-01T08:09:15.148Z,51.20
2019-05-01T08:11:45.275Z,50.30
2019-05-01T08:14:16.636Z,49.50
2019-05-01T08:16:45.207Z,49.80
2019-05-01T08:19:15.737Z,51.00
2019-05-01T08:21:49.112Z,50.50
2019-05-01T08:24:22.782Z,51.10
2019-05-01T08:26:48.657Z,50.70
2019-05-01T08:29:36.856Z,51.30
2019-05-01T08:32:10.541Z,50.90
2019-05-01T08:34:48.784Z,51.00
2019-05-01T08:37:17.897Z,50.80
2019-05-01T08:40:01.608Z,50.50
2019-05-01T08:42:30.538Z,50.70
2019-05-01T08:45:09.925Z,49.90
2019-05-01T08:47:41.895Z,49.40
2019-05-01T08:50:24.781Z,49.40
2019-05-01T08:52:54.560Z,49.90
2019-05-01T08:55:27.551Z,51.30
2019-05-01T08:58:14.003Z,51.10
2019-05-01T09:00:35.439Z,50.50
2019-05-01T09:03:08.097Z,49.70
2019-05-01T09:09:17.013Z,51.00
2019-05-01T09:11:45.953Z,50.20
2019-05-01T09:17:14.624Z,49.20
2019-05-01T09:19:47.254Z,50.00
2019-05-01T09:21:10.949Z,50.00
2019-05-01T09:22:27.148Z,50.10
2019-05-01T09:25:00.040Z,48.90
2019-05-01T09:28:04.262Z,49.20
2019-05-01T09:30:42.874Z,48.90
2019-05-01T09:33:20.618Z,49.80
2019-05-01T09:36:02.191Z,49.60
2019-05-01T09:38:29.421Z,48.80
2019-05-01T09:41:04.849Z,48.10
2019-05-01T09:43:50.486Z,45.80
2019-05-01T09:46:21.981Z,47.60
2019-05-01T09:48:54.617Z,46.90
2019-05-01T09:51:24.759Z,45.20
2019-05-01T09:57:06.782Z,47.60
2019-05-01T09:59:36.219Z,47.00
2019-05-01T10:02:07.858Z,47.20
2019-05-01T10:07:30.817Z,43.70
2019-05-01T10:10:02.374Z,45.10
2019-05-01T10:12:32.754Z,44.20
2019-05-01T10:15:01.651Z,44.50
2019-05-01T10:17:30.537Z,44.00
2019-05-01T10:19:59.368Z,43.80
2019-05-01T10:22:28.276Z,44.20
2019-05-01T10:24:57.189Z,43.10
2019-05-01T10:27:30.890Z,43.50
2019-05-01T10:30:14.670Z,43.00
2019-05-01T10:32:57.766Z,44.40
2019-05-01T10:35:41.544Z,43.20
2019-05-01T10:37:59.482Z,43.00
2019-05-01T10:40:32.443Z,43.40
2019-05-01T10:42:59.400Z,42.50
2019-05-01T10:45:28.409Z,42.50
2019-05-01T10:47:57.417Z,41.80
2019-05-01T10:50:26.572Z,40.80
2019-05-01T10:52:55.575Z,39.50
2019-05-01T10:55:24.495Z,40.50
2019-05-01T10:57:53.362Z,40.80
2019-05-01T11:00:22.415Z,39.70
2019-05-01T11:02:51.339Z,38.20
2019-05-01T11:05:20.269Z,37.00
2019-05-01T11:07:49.242Z,39.00
2019-05-01T11:10:20.097Z,38.50
2019-05-01T11:12:51.230Z,35.20
2019-05-01T11:15:20.230Z,34.10
2019-05-01T11:17:49.089Z,35.90
2019-05-01T11:20:24.973Z,34.80
2019-05-01T11:22:53.932Z,36.10
2019-05-01T11:25:23.226Z,36.40
2019-05-01T11:27:52.142Z,36.10
2019-05-01T11:30:21.166Z,34.60
2019-05-01T11:32:54.398Z,34.10
2019-05-01T11:35:40.839Z,33.10
2019-05-01T11:38:13.722Z,32.90
2019-05-01T11:40:44.646Z,35.60
2019-05-01T11:43:59.578Z,35.60
2019-05-01T11:46:28.614Z,35.70
2019-05-01T11:48:57.631Z,37.90
2019-05-01T11:51:26.533Z,37.70
2019-05-01T11:53:55.522Z,37.90
2019-05-01T11:56:24.418Z,36.40
2019-05-01T11:58:53.286Z,35.70
2019-05-01T12:01:23.817Z,34.20
2019-05-01T12:03:52.915Z,33.00
2019-05-01T12:06:22.904Z,34.90
2019-05-01T12:08:52.289Z,31.30
2019-05-01T12:11:22.826Z,33.80
2019-05-01T12:13:51.680Z,35.20
2019-05-01T12:16:37.871Z,36.20
2019-05-01T12:19:06.754Z,36.00
2019-05-01T12:21:35.677Z,35.40
2019-05-01T12:24:04.586Z,34.90
2019-05-01T12:26:33.418Z,33.60
2019-05-01T12:29:02.329Z,33.50
2019-05-01T12:31:34.219Z,33.80
2019-05-01T12:34:03.269Z,34.20
2019-05-01T12:36:36.377Z,34.90
2019-05-01T12:39:02.878Z,34.60
2019-05-01T12:41:33.365Z,34.70
2019-05-01T12:44:02.304Z,35.00
2019-05-01T12:46:35.595Z,35.50
2019-05-01T12:49:04.691Z,35.90
2019-05-01T12:51:33.853Z,35.20
2019-05-01T12:54:20.828Z,35.90
2019-05-01T12:56:59.562Z,36.00
2019-05-01T12:59:28.378Z,34.80
2019-05-01T13:01:57.286Z,35.70
2019-05-01T13:04:26.173Z,36.60
2019-05-01T13:06:58.030Z,35.20
2019-05-01T13:09:27.112Z,33.10
2019-05-01T13:11:56.099Z,32.30
2019-05-01T13:14:25.040Z,32.90
2019-05-01T13:16:53.912Z,33.00
2019-05-01T13:19:22.786Z,33.80
2019-05-01T13:21:51.719Z,31.70
2019-05-01T13:24:20.830Z,31.30
2019-05-01T13:26:51.362Z,32.20
2019-05-01T13:29:24.512Z,32.60
2019-05-01T13:32:00.788Z,32.90
2019-05-01T13:34:29.645Z,32.60
2019-05-01T13:37:03.279Z,30.70
2019-05-01T13:39:29.330Z,30.00
2019-05-01T13:41:58.265Z,30.10
2019-05-01T13:44:27.262Z,32.00
2019-05-01T13:46:56.161Z,31.40
2019-05-01T13:49:25.091Z,31.30
2019-05-01T13:51:54.034Z,30.80
2019-05-01T13:54:23.025Z,29.30
2019-05-01T13:56:51.921Z,31.70
2019-05-01T13:59:22.767Z,30.60
2019-05-01T14:01:51.620Z,31.10
2019-05-01T14:04:21.661Z,32.00
2019-05-01T14:06:50.925Z,32.50
2019-05-01T14:09:23.305Z,31.30
2019-05-01T14:11:52.742Z,32.60
2019-05-01T14:14:21.654Z,30.50
2019-05-01T14:16:50.500Z,31.70
2019-05-01T14:19:19.371Z,30.50
2019-05-01T14:21:52.483Z,31.10
2019-05-01T14:24:28.642Z,30.50
2019-05-01T14:26:59.313Z,30.70
2019-05-01T14:29:28.368Z,29.70
2019-05-01T14:31:57.404Z,29.60
2019-05-01T14:34:27.432Z,29.40
2019-05-01T14:36:56.366Z,28.90
2019-05-01T14:39:25.325Z,29.20
2019-05-01T14:41:55.666Z,29.90
2019-05-01T14:44:36.242Z,32.00
2019-05-01T14:46:55.004Z,33.10
2019-05-01T14:49:23.877Z,32.90
2019-05-01T14:51:52.729Z,31.40
2019-05-01T14:54:21.582Z,32.00
2019-05-01T14:56:50.489Z,32.80
2019-05-01T14:59:19.399Z,32.80
2019-05-01T15:01:48.245Z,33.30
2019-05-01T15:04:18.288Z,32.10
2019-05-01T15:06:47.238Z,33.10
2019-05-01T15:09:16.080Z,32.90
2019-05-01T15:11:45.783Z,32.70
2019-05-01T15:14:16.268Z,31.90
2019-05-01T15:16:46.753Z,31.10
2019-05-01T15:19:17.210Z,31.50
2019-05-01T15:21:46.178Z,32.00
2019-05-01T15:24:15.048Z,32.20
2019-05-01T15:26:46.893Z,32.50
2019-05-01T15:29:14.502Z,31.10
2019-05-01T15:31:43.395Z,31.90
2019-05-01T15:34:12.207Z,31.40
2019-05-01T15:36:41.040Z,31.30
2019-05-01T15:39:11.977Z,31.40
2019-05-01T15:41:58.373Z,31.10
2019-05-01T15:44:28.835Z,32.10
2019-05-01T15:46:57.678Z,31.60
2019-05-01T15:49:26.473Z,30.40
2019-05-01T15:51:55.410Z,30.50
2019-05-01T15:54:24.248Z,31.30
2019-05-01T15:56:53.155Z,30.90
2019-05-01T15:59:22.084Z,31.70
2019-05-01T16:01:50.975Z,32.40
2019-05-01T16:04:19.816Z,32.90
2019-05-01T16:06:48.776Z,34.00
2019-05-01T16:09:17.599Z,33.00
2019-05-01T16:12:05.996Z,33.90
2019-05-01T16:14:35.115Z,33.60
2019-05-01T16:17:04.204Z,33.30
2019-05-01T16:19:33.026Z,34.10
2019-05-01T16:22:01.984Z,33.90
2019-05-01T16:24:30.823Z,33.50
2019-05-01T16:26:59.797Z,34.40
2019-05-01T16:29:28.727Z,34.80
2019-05-01T16:31:57.611Z,33.40
2019-05-01T16:34:28.163Z,34.20
2019-05-01T16:36:57.018Z,32.70
2019-05-01T16:39:45.183Z,33.10
2019-05-01T16:42:14.105Z,33.30
2019-05-01T16:44:44.664Z,32.70
2019-05-01T16:47:13.552Z,34.10
2019-05-01T16:49:42.429Z,32.00
2019-05-01T16:52:12.286Z,32.40
2019-05-01T16:54:41.095Z,34.30
2019-05-01T16:57:11.484Z,32.90
2019-05-01T16:59:40.349Z,33.70
2019-05-01T17:02:13.818Z,33.80
2019-05-01T17:04:44.345Z,35.40
2019-05-01T17:07:32.737Z,36.10
2019-05-01T17:10:11.852Z,36.90
2019-05-01T17:12:44.798Z,37.40
2019-05-01T17:15:13.858Z,37.70
2019-05-01T17:17:43.429Z,38.30
2019-05-01T17:20:12.427Z,38.30
2019-05-01T17:22:41.310Z,38.40
2019-05-01T17:25:10.327Z,38.90
2019-05-01T17:27:39.154Z,39.20
2019-05-01T17:30:19.775Z,39.10
2019-05-01T17:32:48.649Z,39.50
2019-05-01T17:35:17.557Z,39.30
2019-05-01T17:37:46.512Z,39.50
2019-05-01T17:40:15.434Z,39.70
2019-05-01T17:42:46.277Z,39.70
2019-05-01T17:45:15.010Z,39.80
2019-05-01T17:47:44.842Z,40.10
2019-05-01T17:50:16.373Z,39.70
2019-05-01T17:52:44.468Z,39.60
2019-05-01T17:55:15.251Z,39.90
2019-05-01T17:57:48.128Z,40.20
2019-05-01T18:00:27.403Z,40.20
2019-05-01T18:02:57.895Z,40.60
2019-05-01T18:05:28.354Z,40.80
2019-05-01T18:07:57.270Z,41.10
2019-05-01T18:10:29.148Z,41.10
2019-05-01T18:13:00.094Z,41.30
2019-05-01T18:15:28.979Z,41.60
2019-05-01T18:17:57.934Z,42.00
2019-05-01T18:20:26.958Z,41.90
2019-05-01T18:23:03.102Z,42.40
2019-05-01T18:25:45.228Z,42.20
2019-05-01T18:28:31.679Z,42.50
2019-05-01T18:31:01.033Z,43.10
2019-05-01T18:33:30.007Z,43.70
2019-05-01T18:35:58.998Z,43.50
2019-05-01T18:38:38.323Z,43.30
2019-05-01T18:41:20.671Z,44.40
2019-05-01T18:43:49.720Z,44.60
2019-05-01T18:46:18.821Z,44.50
2019-05-01T18:48:47.717Z,45.10
2019-05-01T18:51:16.662Z,44.90
2019-05-01T18:53:45.693Z,44.30
2019-05-01T18:56:14.605Z,44.90
2019-05-01T18:58:43.501Z,43.70
2019-05-01T19:01:12.586Z,44.80
2019-05-01T19:03:42.316Z,44.60
2019-05-01T19:06:12.412Z,45.60
2019-05-01T19:08:42.373Z,45.60
2019-05-01T19:11:13.141Z,45.20
2019-05-01T19:13:44.662Z,44.70
2019-05-01T19:16:13.646Z,44.60
2019-05-01T19:18:42.563Z,45.10
2019-05-01T19:21:12.716Z,44.40
2019-05-01T19:23:41.818Z,44.70
2019-05-01T19:26:10.791Z,44.80
2019-05-01T19:28:39.702Z,45.90
2019-05-01T19:31:08.628Z,47.10
2019-05-01T19:33:37.565Z,47.40
2019-05-01T19:36:08.243Z,48.10
2019-05-01T19:38:37.137Z,47.80
2019-05-01T19:41:08.762Z,48.50
2019-05-01T19:43:40.387Z,48.50
2019-05-01T19:46:07.277Z,48.20
2019-05-01T19:48:36.318Z,48.10
2019-05-01T19:51:05.535Z,49.10
2019-05-01T19:53:34.339Z,48.70
2019-05-01T19:56:03.217Z,47.10
2019-05-01T19:58:32.137Z,46.70
2019-05-01T20:01:04.236Z,47.30
2019-05-01T20:03:36.257Z,48.30
2019-05-01T20:06:05.322Z,49.20
2019-05-01T20:08:33.221Z,49.30
2019-05-01T20:11:02.061Z,49.00
2019-05-01T20:13:31.077Z,49.80
2019-05-01T20:16:00.016Z,48.90
2019-05-01T20:18:28.874Z,49.00
2019-05-01T20:20:57.900Z,48.50
2019-05-01T20:23:31.504Z,48.70
2019-05-01T20:25:57.453Z,48.00
2019-05-01T20:28:28.315Z,48.00
2019-05-01T20:30:56.893Z,47.90
2019-05-01T20:33:25.790Z,48.10
2019-05-01T20:35:54.666Z,48.70
2019-05-01T20:38:24.542Z,48.90
2019-05-01T20:40:53.972Z,48.90
2019-05-01T20:43:22.923Z,49.00
2019-05-01T20:45:53.127Z,49.10
2019-05-01T20:48:23.621Z,50.30
2019-05-01T20:50:52.876Z,51.10
2019-05-01T20:53:21.736Z,51.90
2019-05-01T20:55:52.213Z,51.40
2019-05-01T20:58:22.686Z,51.70
2019-05-01T21:00:54.671Z,52.50
2019-05-01T21:03:23.841Z,52.50
2019-05-01T21:05:57.064Z,52.70
2019-05-01T21:08:47.340Z,51.40
2019-05-01T21:11:20.701Z,52.30
2019-05-01T21:14:15.740Z,52.80
2019-05-01T21:16:32.888Z,52.30
2019-05-01T21:19:01.037Z,52.00
2019-05-01T21:21:30.519Z,53.20
2019-05-01T21:24:01.362Z,53.00
2019-05-01T21:26:30.731Z,53.50
2019-05-01T21:28:59.701Z,53.80
2019-05-01T21:31:34.118Z,53.60
2019-05-01T21:34:04.247Z,53.70
2019-05-01T21:36:33.372Z,54.30
2019-05-01T21:39:02.552Z,54.30
2019-05-01T21:41:33.119Z,53.70
2019-05-01T21:44:03.470Z,54.20
2019-05-01T21:46:34.043Z,54.50
2019-05-01T21:49:03.518Z,54.30
2019-05-01T21:51:37.152Z,53.70
2019-05-01T21:54:05.089Z,53.20
2019-05-01T21:56:36.870Z,52.40
2019-05-01T21:59:08.448Z,52.10
2019-05-01T22:01:36.431Z,52.60
2019-05-01T22:04:06.148Z,53.10
2019-05-01T22:06:35.033Z,53.50
2019-05-01T22:09:10.542Z,53.30
2019-05-01T22:11:38.883Z,53.50
2019-05-01T22:14:10.512Z,53.70
2019-05-01T22:16:39.447Z,53.50
2019-05-01T22:19:12.606Z,53.80
2019-05-01T22:21:58.881Z,53.70
2019-05-01T22:24:40.338Z,53.40
2019-05-01T22:27:10.877Z,53.30
2019-05-01T22:29:44.166Z,53.50
2019-05-01T22:32:23.471Z,54.10
2019-05-01T22:35:09.667Z,55.00
2019-05-01T22:37:38.609Z,55.10
2019-05-01T22:40:09.427Z,55.50
2019-05-01T22:42:38.379Z,56.10
2019-05-01T22:45:09.372Z,55.50
2019-05-01T22:47:38.201Z,55.20
2019-05-01T22:50:11.412Z,55.00
2019-05-01T22:52:40.355Z,55.70
2019-05-01T22:55:09.377Z,56.10
2019-05-01T22:57:38.282Z,56.10
2019-05-01T23:00:11.112Z,57.00
2019-05-01T23:02:42.592Z,56.50
2019-05-01T23:05:11.695Z,56.70
2019-05-01T23:07:40.637Z,56.10
2019-05-01T23:10:10.069Z,56.30
2019-05-01T23:12:40.095Z,55.90
2019-05-01T23:15:11.398Z,56.10
2019-05-01T23:17:47.173Z,56.20
2019-05-01T23:20:16.785Z,56.20
2019-05-01T23:22:45.770Z,56.20
2019-05-01T23:25:14.890Z,56.50
2019-05-01T23:27:43.768Z,56.20
2019-05-01T23:30:15.176Z,56.30
2019-05-01T23:32:44.201Z,55.10
2019-05-01T23:35:13.312Z,55.40
2019-05-01T23:37:42.254Z,54.90
2019-05-01T23:40:15.579Z,55.50
2019-05-01T23:42:43.356Z,55.00
2019-05-01T23:45:13.244Z,54.70
2019-05-01T23:47:43.823Z,54.40
2019-05-01T23:50:13.254Z,54.80
2019-05-01T23:52:42.147Z,54.60
2019-05-01T23:55:11.290Z,53.90
2019-05-01T23:57:40.213Z,54.30
